sensor_id;sensor_type;location;lat;lon;timestamp;temperature;humidity
15617;DHT22;7908;51.688;7.130;2023-10-13T03:58:31;16.90;99.90
15617;DHT22;7908;51.688;7.130;2023-10-13T04:01:10;17.00;99.90
15617;DHT22;7908;51.688;7.130;2023-10-13T04:08:02;17.00;99.90
15617;DHT22;7908;51.688;7.130;2023-10-13T04:10:52;17.00;99.90
15617;DHT22;7908;51.688;7.130;2023-10-13T04:13:50;17.10;99.90
15617;DHT22;7908;51.688;7.130;2023-10-13T04:16:36;16.80;99.90
15617;DHT22;7908;51.688;7.130;2023-10-13T04:19:18;17.00;99.90
15617;DHT22;7908;51.688;7.130;2023-10-13T04:21:56;17.00;99.90
15617;DHT22;7908;51.688;7.130;2023-10-13T04:24:41;17.00;99.90
15617;DHT22;7908;51.688;7.130;2023-10-13T04:27:32;17.00;99.90
15617;DHT22;7908;51.688;7.130;2023-10-13T04:30:22;17.00;99.90
15617;DHT22;7908;51.688;7.130;2023-10-13T04:33:05;17.00;99.90
15617;DHT22;7908;51.688;7.130;2023-10-13T04:36:05;17.00;99.90
15617;DHT22;7908;51.688;7.130;2023-10-13T04:38:42;17.00;99.90
15617;DHT22;7908;51.688;7.130;2023-10-13T04:41:29;17.00;99.90
15617;DHT22;7908;51.688;7.130;2023-10-13T04:44:22;16.90;99.90
15617;DHT22;7908;51.688;7.130;2023-10-13T04:58:35;17.00;99.90
15617;DHT22;7908;51.688;7.130;2023-10-13T05:02:19;16.90;99.90
15617;DHT22;7908;51.688;7.130;2023-10-13T05:05:37;16.90;99.90
15617;DHT22;7908;51.688;7.130;2023-10-13T05:09:21;16.70;99.90
15617;DHT22;7908;51.688;7.130;2023-10-13T05:12:10;16.90;99.90
15617;DHT22;7908;51.688;7.130;2023-10-13T05:15:25;16.90;99.90
15617;DHT22;7908;51.688;7.130;2023-10-13T05:18:24;16.90;99.90
15617;DHT22;7908;51.688;7.130;2023-10-13T05:21:23;16.90;99.90
15617;DHT22;7908;51.688;7.130;2023-10-13T05:24:24;16.90;99.90
15617;DHT22;7908;51.688;7.130;2023-10-13T05:27:44;17.00;99.90
15617;DHT22;7908;51.688;7.130;2023-10-13T05:34:22;17.10;99.90
15617;DHT22;7908;51.688;7.130;2023-10-13T05:37:36;17.00;99.90
15617;DHT22;7908;51.688;7.130;2023-10-13T05:40:25;16.80;99.90
15617;DHT22;7908;51.688;7.130;2023-10-13T05:43:15;17.00;99.90
15617;DHT22;7908;51.688;7.130;2023-10-13T05:46:08;17.10;99.90
15617;DHT22;7908;51.688;7.130;2023-10-13T09:58:14;19.50;99.90
15617;DHT22;7908;51.688;7.130;2023-10-13T10:00:50;19.50;99.90
15617;DHT22;7908;51.688;7.130;2023-10-13T10:03:25;19.60;99.90
15617;DHT22;7908;51.688;7.130;2023-10-13T10:06:09;19.70;99.90
15617;DHT22;7908;51.688;7.130;2023-10-13T10:08:44;19.70;99.90
15617;DHT22;7908;51.688;7.130;2023-10-13T10:11:55;19.80;99.90
15617;DHT22;7908;51.688;7.130;2023-10-13T10:14:46;19.70;99.90
15617;DHT22;7908;51.688;7.130;2023-10-13T10:17:22;19.80;99.90
15617;DHT22;7908;51.688;7.130;2023-10-13T10:19:57;19.90;99.90
15617;DHT22;7908;51.688;7.130;2023-10-13T10:22:33;19.90;99.90
15617;DHT22;7908;51.688;7.130;2023-10-13T10:25:05;19.90;99.90
15617;DHT22;7908;51.688;7.130;2023-10-13T10:27:55;20.00;99.90
15617;DHT22;7908;51.688;7.130;2023-10-13T10:30:27;20.00;99.90
15617;DHT22;7908;51.688;7.130;2023-10-13T10:32:57;20.00;99.90
15617;DHT22;7908;51.688;7.130;2023-10-13T10:35:28;20.10;99.90
15617;DHT22;7908;51.688;7.130;2023-10-13T10:38:08;20.20;99.90
15617;DHT22;7908;51.688;7.130;2023-10-13T10:40:51;20.10;99.90
15617;DHT22;7908;51.688;7.130;2023-10-13T10:43:26;20.20;99.90
15617;DHT22;7908;51.688;7.130;2023-10-13T10:46:03;20.10;99.90
15617;DHT22;7908;51.688;7.130;2023-10-13T10:48:33;20.10;99.90
15617;DHT22;7908;51.688;7.130;2023-10-13T10:51:05;20.20;99.90
15617;DHT22;7908;51.688;7.130;2023-10-13T10:53:42;20.20;99.90
15617;DHT22;7908;51.688;7.130;2023-10-13T10:56:15;20.20;99.90
15617;DHT22;7908;51.688;7.130;2023-10-13T10:59:06;20.20;99.90
15617;DHT22;7908;51.688;7.130;2023-10-13T11:01:45;20.20;99.90
15617;DHT22;7908;51.688;7.130;2023-10-13T11:04:19;20.20;99.90
15617;DHT22;7908;51.688;7.130;2023-10-13T11:07:01;20.30;99.90
15617;DHT22;7908;51.688;7.130;2023-10-13T11:09:33;20.30;99.90
15617;DHT22;7908;51.688;7.130;2023-10-13T11:12:11;20.30;99.90
15617;DHT22;7908;51.688;7.130;2023-10-13T11:14:44;20.30;99.90
15617;DHT22;7908;51.688;7.130;2023-10-13T11:17:22;20.30;99.90
15617;DHT22;7908;51.688;7.130;2023-10-13T11:19:54;20.30;99.90
15617;DHT22;7908;51.688;7.130;2023-10-13T11:22:24;20.40;99.90
15617;DHT22;7908;51.688;7.130;2023-10-13T11:25:05;20.40;99.90
15617;DHT22;7908;51.688;7.130;2023-10-13T11:27:38;20.30;99.90
15617;DHT22;7908;51.688;7.130;2023-10-13T11:30:24;20.40;99.90
15617;DHT22;7908;51.688;7.130;2023-10-13T11:32:59;20.40;99.90
15617;DHT22;7908;51.688;7.130;2023-10-13T11:35:34;20.40;99.90
15617;DHT22;7908;51.688;7.130;2023-10-13T11:38:24;20.40;99.90
15617;DHT22;7908;51.688;7.130;2023-10-13T11:40:58;20.40;99.90
15617;DHT22;7908;51.688;7.130;2023-10-13T11:43:45;20.40;99.90
15617;DHT22;7908;51.688;7.130;2023-10-13T11:46:28;20.50;99.90
15617;DHT22;7908;51.688;7.130;2023-10-13T11:49:16;20.50;99.90
15617;DHT22;7908;51.688;7.130;2023-10-13T11:51:59;20.60;99.90
15617;DHT22;7908;51.688;7.130;2023-10-13T11:54:44;20.70;99.90
15617;DHT22;7908;51.688;7.130;2023-10-13T11:57:15;20.80;99.90
15617;DHT22;7908;51.688;7.130;2023-10-13T11:59:47;20.80;99.90
15617;DHT22;7908;51.688;7.130;2023-10-13T12:02:27;20.90;99.90
15617;DHT22;7908;51.688;7.130;2023-10-13T12:05:15;20.80;99.90
15617;DHT22;7908;51.688;7.130;2023-10-13T12:07:55;20.80;99.90
15617;DHT22;7908;51.688;7.130;2023-10-13T12:10:31;20.80;99.90
15617;DHT22;7908;51.688;7.130;2023-10-13T12:13:17;20.70;99.90
15617;DHT22;7908;51.688;7.130;2023-10-13T12:15:47;20.70;99.90
15617;DHT22;7908;51.688;7.130;2023-10-13T12:18:20;20.70;99.90
15617;DHT22;7908;51.688;7.130;2023-10-13T12:20:52;20.70;99.90
15617;DHT22;7908;51.688;7.130;2023-10-13T12:23:25;20.80;99.90
15617;DHT22;7908;51.688;7.130;2023-10-13T12:25:59;20.80;99.90
15617;DHT22;7908;51.688;7.130;2023-10-13T12:28:34;21.00;99.90
15617;DHT22;7908;51.688;7.130;2023-10-13T12:31:08;21.10;99.90
15617;DHT22;7908;51.688;7.130;2023-10-13T12:33:39;21.20;99.90
15617;DHT22;7908;51.688;7.130;2023-10-13T12:36:10;21.20;99.90
15617;DHT22;7908;51.688;7.130;2023-10-13T12:38:43;21.30;99.90
15617;DHT22;7908;51.688;7.130;2023-10-13T12:41:28;21.30;99.90
15617;DHT22;7908;51.688;7.130;2023-10-13T12:44:15;21.30;99.90
15617;DHT22;7908;51.688;7.130;2023-10-13T12:47:01;21.30;99.90
15617;DHT22;7908;51.688;7.130;2023-10-13T12:49:48;21.30;99.90
15617;DHT22;7908;51.688;7.130;2023-10-13T12:52:34;21.30;99.90
15617;DHT22;7908;51.688;7.130;2023-10-13T12:55:04;21.40;99.90
15617;DHT22;7908;51.688;7.130;2023-10-13T12:57:37;21.50;99.90
15617;DHT22;7908;51.688;7.130;2023-10-13T13:00:12;21.50;99.90
15617;DHT22;7908;51.688;7.130;2023-10-13T13:03:01;21.60;99.90
15617;DHT22;7908;51.688;7.130;2023-10-13T13:05:40;21.60;99.90
15617;DHT22;7908;51.688;7.130;2023-10-13T13:08:15;21.70;99.90
15617;DHT22;7908;51.688;7.130;2023-10-13T13:10:50;21.70;99.90
15617;DHT22;7908;51.688;7.130;2023-10-13T13:13:20;21.70;99.90
15617;DHT22;7908;51.688;7.130;2023-10-13T13:15:53;21.80;99.90
15617;DHT22;7908;51.688;7.130;2023-10-13T13:18:22;21.80;99.90
15617;DHT22;7908;51.688;7.130;2023-10-13T13:20:51;21.90;99.90
15617;DHT22;7908;51.688;7.130;2023-10-13T13:23:25;22.00;99.90
15617;DHT22;7908;51.688;7.130;2023-10-13T13:25:55;22.00;99.90
15617;DHT22;7908;51.688;7.130;2023-10-13T13:28:25;22.10;99.90
15617;DHT22;7908;51.688;7.130;2023-10-13T13:30:57;22.20;99.90
15617;DHT22;7908;51.688;7.130;2023-10-13T13:33:27;22.20;99.90
15617;DHT22;7908;51.688;7.130;2023-10-13T13:36:01;22.30;99.90
15617;DHT22;7908;51.688;7.130;2023-10-13T13:38:33;22.40;99.90
15617;DHT22;7908;51.688;7.130;2023-10-13T13:41:05;22.40;99.90
15617;DHT22;7908;51.688;7.130;2023-10-13T13:43:43;22.50;99.90
15617;DHT22;7908;51.688;7.130;2023-10-13T13:46:26;22.50;99.90
15617;DHT22;7908;51.688;7.130;2023-10-13T13:49:00;22.60;99.90
15617;DHT22;7908;51.688;7.130;2023-10-13T13:51:34;22.60;99.90
15617;DHT22;7908;51.688;7.130;2023-10-13T13:54:07;22.70;99.90
15617;DHT22;7908;51.688;7.130;2023-10-13T13:56:36;22.80;99.90
15617;DHT22;7908;51.688;7.130;2023-10-13T13:59:07;22.90;99.90
15617;DHT22;7908;51.688;7.130;2023-10-13T14:01:36;22.90;99.90
15617;DHT22;7908;51.688;7.130;2023-10-13T14:04:08;22.80;99.90
15617;DHT22;7908;51.688;7.130;2023-10-13T14:06:38;22.80;99.90
15617;DHT22;7908;51.688;7.130;2023-10-13T14:09:09;22.70;99.90
15617;DHT22;7908;51.688;7.130;2023-10-13T14:11:44;22.70;99.90
15617;DHT22;7908;51.688;7.130;2023-10-13T14:14:30;22.70;99.90
15617;DHT22;7908;51.688;7.130;2023-10-13T14:17:01;22.70;99.90
15617;DHT22;7908;51.688;7.130;2023-10-13T14:19:37;22.70;99.90
15617;DHT22;7908;51.688;7.130;2023-10-13T14:22:09;22.70;99.90
15617;DHT22;7908;51.688;7.130;2023-10-13T14:24:42;22.70;99.90
15617;DHT22;7908;51.688;7.130;2023-10-13T14:27:22;22.60;99.90
15617;DHT22;7908;51.688;7.130;2023-10-13T14:29:58;22.60;99.90
15617;DHT22;7908;51.688;7.130;2023-10-13T14:32:28;22.60;99.90
15617;DHT22;7908;51.688;7.130;2023-10-13T14:34:58;22.60;99.90
15617;DHT22;7908;51.688;7.130;2023-10-13T14:37:28;22.60;99.90
15617;DHT22;7908;51.688;7.130;2023-10-13T14:40:01;22.50;99.90
15617;DHT22;7908;51.688;7.130;2023-10-13T14:42:31;22.50;99.90
15617;DHT22;7908;51.688;7.130;2023-10-13T14:45:04;22.50;99.90
15617;DHT22;7908;51.688;7.130;2023-10-13T14:47:40;22.40;99.90
15617;DHT22;7908;51.688;7.130;2023-10-13T14:50:10;22.40;99.90
15617;DHT22;7908;51.688;7.130;2023-10-13T14:52:45;22.40;99.90
15617;DHT22;7908;51.688;7.130;2023-10-13T14:55:16;22.30;99.90
15617;DHT22;7908;51.688;7.130;2023-10-13T14:57:50;22.30;99.90
15617;DHT22;7908;51.688;7.130;2023-10-13T15:00:19;22.20;99.90
15617;DHT22;7908;51.688;7.130;2023-10-13T15:02:53;22.20;99.90
15617;DHT22;7908;51.688;7.130;2023-10-13T15:05:23;22.20;99.90
15617;DHT22;7908;51.688;7.130;2023-10-13T15:07:52;22.10;99.90
15617;DHT22;7908;51.688;7.130;2023-10-13T15:10:25;22.10;99.90
15617;DHT22;7908;51.688;7.130;2023-10-13T15:12:55;22.10;99.90
15617;DHT22;7908;51.688;7.130;2023-10-13T15:15:27;22.10;99.90
15617;DHT22;7908;51.688;7.130;2023-10-13T15:17:59;22.00;99.90
15617;DHT22;7908;51.688;7.130;2023-10-13T15:20:29;22.00;99.90
15617;DHT22;7908;51.688;7.130;2023-10-13T15:22:58;22.00;99.90
15617;DHT22;7908;51.688;7.130;2023-10-13T15:25:30;21.90;99.90
15617;DHT22;7908;51.688;7.130;2023-10-13T15:28:09;22.00;99.90
15617;DHT22;7908;51.688;7.130;2023-10-13T15:30:38;22.00;99.90
15617;DHT22;7908;51.688;7.130;2023-10-13T15:33:20;22.00;99.90
15617;DHT22;7908;51.688;7.130;2023-10-13T15:35:49;21.90;99.90
15617;DHT22;7908;51.688;7.130;2023-10-13T15:38:19;21.80;99.90
15617;DHT22;7908;51.688;7.130;2023-10-13T15:40:52;21.80;99.90
15617;DHT22;7908;51.688;7.130;2023-10-13T15:43:22;21.80;99.90
15617;DHT22;7908;51.688;7.130;2023-10-13T15:45:52;21.80;99.90
15617;DHT22;7908;51.688;7.130;2023-10-13T15:48:41;21.80;99.90
15617;DHT22;7908;51.688;7.130;2023-10-13T15:51:24;21.70;99.90
15617;DHT22;7908;51.688;7.130;2023-10-13T15:53:54;21.70;99.90
15617;DHT22;7908;51.688;7.130;2023-10-13T15:56:30;21.70;99.90
15617;DHT22;7908;51.688;7.130;2023-10-13T15:59:00;21.70;99.90
15617;DHT22;7908;51.688;7.130;2023-10-13T16:01:31;21.60;99.90
15617;DHT22;7908;51.688;7.130;2023-10-13T16:04:01;21.50;99.90
15617;DHT22;7908;51.688;7.130;2023-10-13T16:06:38;21.50;99.90
15617;DHT22;7908;51.688;7.130;2023-10-13T16:09:11;21.50;99.90
15617;DHT22;7908;51.688;7.130;2023-10-13T16:11:44;21.50;99.90
15617;DHT22;7908;51.688;7.130;2023-10-13T16:14:13;21.40;99.90
15617;DHT22;7908;51.688;7.130;2023-10-13T16:16:46;21.40;99.90
15617;DHT22;7908;51.688;7.130;2023-10-13T16:19:16;21.30;99.90
15617;DHT22;7908;51.688;7.130;2023-10-13T16:21:50;21.30;99.90
15617;DHT22;7908;51.688;7.130;2023-10-13T16:24:19;21.30;99.90
15617;DHT22;7908;51.688;7.130;2023-10-13T16:26:53;21.30;99.90
15617;DHT22;7908;51.688;7.130;2023-10-13T16:29:23;21.20;99.90
15617;DHT22;7908;51.688;7.130;2023-10-13T16:31:52;21.20;99.90
15617;DHT22;7908;51.688;7.130;2023-10-13T16:34:22;21.20;99.90
15617;DHT22;7908;51.688;7.130;2023-10-13T16:36:53;21.20;99.90
15617;DHT22;7908;51.688;7.130;2023-10-13T16:39:23;21.10;99.90
15617;DHT22;7908;51.688;7.130;2023-10-13T16:41:55;21.10;99.90
15617;DHT22;7908;51.688;7.130;2023-10-13T16:44:24;21.10;99.90
15617;DHT22;7908;51.688;7.130;2023-10-13T16:46:53;21.00;99.90
15617;DHT22;7908;51.688;7.130;2023-10-13T16:49:28;20.90;99.90
15617;DHT22;7908;51.688;7.130;2023-10-13T16:51:58;20.90;99.90
15617;DHT22;7908;51.688;7.130;2023-10-13T16:54:28;20.80;99.90
15617;DHT22;7908;51.688;7.130;2023-10-13T16:56:59;20.80;99.90
15617;DHT22;7908;51.688;7.130;2023-10-13T16:59:29;20.70;99.90
15617;DHT22;7908;51.688;7.130;2023-10-13T17:01:58;20.70;99.90
15617;DHT22;7908;51.688;7.130;2023-10-13T17:04:30;20.70;99.90
15617;DHT22;7908;51.688;7.130;2023-10-13T17:07:05;20.70;99.90
15617;DHT22;7908;51.688;7.130;2023-10-13T17:09:35;20.70;99.90
15617;DHT22;7908;51.688;7.130;2023-10-13T17:12:28;20.60;99.90
15617;DHT22;7908;51.688;7.130;2023-10-13T17:14:58;20.50;99.90
15617;DHT22;7908;51.688;7.130;2023-10-13T17:17:27;20.30;99.90
15617;DHT22;7908;51.688;7.130;2023-10-13T17:19:58;20.20;99.90
15617;DHT22;7908;51.688;7.130;2023-10-13T17:22:28;20.10;99.90
15617;DHT22;7908;51.688;7.130;2023-10-13T17:24:59;20.00;99.90
15617;DHT22;7908;51.688;7.130;2023-10-13T17:27:32;19.80;99.90
15617;DHT22;7908;51.688;7.130;2023-10-13T17:30:06;19.70;99.90
15617;DHT22;7908;51.688;7.130;2023-10-13T17:32:35;19.60;99.90
15617;DHT22;7908;51.688;7.130;2023-10-13T17:35:12;19.50;99.90
15617;DHT22;7908;51.688;7.130;2023-10-13T17:37:42;19.40;99.90
15617;DHT22;7908;51.688;7.130;2023-10-13T17:40:14;19.20;99.90
15617;DHT22;7908;51.688;7.130;2023-10-13T17:42:46;19.10;99.90
15617;DHT22;7908;51.688;7.130;2023-10-13T17:45:19;18.90;99.90
15617;DHT22;7908;51.688;7.130;2023-10-13T17:47:49;18.70;99.90
15617;DHT22;7908;51.688;7.130;2023-10-13T17:50:19;18.60;99.90
15617;DHT22;7908;51.688;7.130;2023-10-13T17:52:49;18.50;99.90
15617;DHT22;7908;51.688;7.130;2023-10-13T17:55:19;18.50;99.90
15617;DHT22;7908;51.688;7.130;2023-10-13T17:57:50;18.50;99.90
15617;DHT22;7908;51.688;7.130;2023-10-13T18:00:24;18.40;99.90
15617;DHT22;7908;51.688;7.130;2023-10-13T18:02:53;18.50;99.90
15617;DHT22;7908;51.688;7.130;2023-10-13T18:05:23;18.40;99.90
15617;DHT22;7908;51.688;7.130;2023-10-13T18:07:52;18.30;99.90
15617;DHT22;7908;51.688;7.130;2023-10-13T18:10:26;18.30;99.90
15617;DHT22;7908;51.688;7.130;2023-10-13T18:12:59;18.30;99.90
15617;DHT22;7908;51.688;7.130;2023-10-13T18:15:28;18.30;99.90
15617;DHT22;7908;51.688;7.130;2023-10-13T18:17:59;18.20;99.90
15617;DHT22;7908;51.688;7.130;2023-10-13T18:20:29;18.10;99.90
15617;DHT22;7908;51.688;7.130;2023-10-13T18:22:58;18.10;99.90
15617;DHT22;7908;51.688;7.130;2023-10-13T18:25:34;18.00;99.90
15617;DHT22;7908;51.688;7.130;2023-10-13T18:28:12;18.00;99.90
15617;DHT22;7908;51.688;7.130;2023-10-13T18:30:44;18.00;99.90
15617;DHT22;7908;51.688;7.130;2023-10-13T18:33:14;17.90;99.90
15617;DHT22;7908;51.688;7.130;2023-10-13T18:35:43;17.90;99.90
15617;DHT22;7908;51.688;7.130;2023-10-13T18:38:13;17.80;99.90
15617;DHT22;7908;51.688;7.130;2023-10-13T18:40:42;17.80;99.90
15617;DHT22;7908;51.688;7.130;2023-10-13T18:43:16;17.80;99.90
15617;DHT22;7908;51.688;7.130;2023-10-13T18:45:46;17.70;99.90
15617;DHT22;7908;51.688;7.130;2023-10-13T18:48:15;17.70;99.90
15617;DHT22;7908;51.688;7.130;2023-10-13T18:50:44;17.70;99.90
15617;DHT22;7908;51.688;7.130;2023-10-13T18:53:13;17.70;99.90
15617;DHT22;7908;51.688;7.130;2023-10-13T18:55:43;17.60;99.90
15617;DHT22;7908;51.688;7.130;2023-10-13T18:58:19;17.60;99.90
15617;DHT22;7908;51.688;7.130;2023-10-13T19:00:48;17.70;99.90
15617;DHT22;7908;51.688;7.130;2023-10-13T19:03:17;17.60;99.90
15617;DHT22;7908;51.688;7.130;2023-10-13T19:05:55;17.60;99.90
15617;DHT22;7908;51.688;7.130;2023-10-13T19:08:27;17.60;99.90
15617;DHT22;7908;51.688;7.130;2023-10-13T19:11:02;17.60;99.90
15617;DHT22;7908;51.688;7.130;2023-10-13T19:13:37;17.70;99.90
15617;DHT22;7908;51.688;7.130;2023-10-13T19:16:08;17.60;99.90
15617;DHT22;7908;51.688;7.130;2023-10-13T19:18:38;17.60;99.90
15617;DHT22;7908;51.688;7.130;2023-10-13T19:21:08;17.60;99.90
15617;DHT22;7908;51.688;7.130;2023-10-13T19:23:42;17.60;99.90
15617;DHT22;7908;51.688;7.130;2023-10-13T19:26:14;17.60;99.90
15617;DHT22;7908;51.688;7.130;2023-10-13T19:28:45;17.60;99.90
15617;DHT22;7908;51.688;7.130;2023-10-13T19:31:15;17.60;99.90
15617;DHT22;7908;51.688;7.130;2023-10-13T19:33:46;17.60;99.90
15617;DHT22;7908;51.688;7.130;2023-10-13T19:36:24;17.50;99.90
15617;DHT22;7908;51.688;7.130;2023-10-13T19:38:54;17.50;99.90
15617;DHT22;7908;51.688;7.130;2023-10-13T19:41:25;17.50;99.90
15617;DHT22;7908;51.688;7.130;2023-10-13T19:43:57;17.50;99.90
15617;DHT22;7908;51.688;7.130;2023-10-13T19:46:30;17.50;99.90
15617;DHT22;7908;51.688;7.130;2023-10-13T19:49:00;17.40;99.90
15617;DHT22;7908;51.688;7.130;2023-10-13T19:51:32;17.40;99.90
15617;DHT22;7908;51.688;7.130;2023-10-13T19:54:05;17.30;99.90
15617;DHT22;7908;51.688;7.130;2023-10-13T19:56:35;17.30;99.90
15617;DHT22;7908;51.688;7.130;2023-10-13T19:59:08;17.30;99.90
15617;DHT22;7908;51.688;7.130;2023-10-13T20:01:39;17.30;99.90
15617;DHT22;7908;51.688;7.130;2023-10-13T20:04:10;17.20;99.90
15617;DHT22;7908;51.688;7.130;2023-10-13T20:06:41;17.20;99.90
15617;DHT22;7908;51.688;7.130;2023-10-13T20:09:14;17.30;99.90
15617;DHT22;7908;51.688;7.130;2023-10-13T20:11:52;17.30;99.90
15617;DHT22;7908;51.688;7.130;2023-10-13T20:14:26;17.30;99.90
15617;DHT22;7908;51.688;7.130;2023-10-13T20:16:55;17.20;99.90
15617;DHT22;7908;51.688;7.130;2023-10-13T20:19:24;17.30;99.90
15617;DHT22;7908;51.688;7.130;2023-10-13T20:21:55;17.20;99.90
15617;DHT22;7908;51.688;7.130;2023-10-13T20:24:25;17.20;99.90
15617;DHT22;7908;51.688;7.130;2023-10-13T20:26:54;17.10;99.90
15617;DHT22;7908;51.688;7.130;2023-10-13T20:29:26;17.20;99.90
15617;DHT22;7908;51.688;7.130;2023-10-13T20:31:55;17.20;99.90
15617;DHT22;7908;51.688;7.130;2023-10-13T20:34:26;17.20;99.90
15617;DHT22;7908;51.688;7.130;2023-10-13T20:37:09;17.20;99.90
15617;DHT22;7908;51.688;7.130;2023-10-13T20:39:40;17.20;99.90
15617;DHT22;7908;51.688;7.130;2023-10-13T20:42:11;17.10;99.90
15617;DHT22;7908;51.688;7.130;2023-10-13T20:44:44;17.10;99.90
15617;DHT22;7908;51.688;7.130;2023-10-13T20:47:14;17.10;99.90
15617;DHT22;7908;51.688;7.130;2023-10-13T20:49:45;17.10;99.90
15617;DHT22;7908;51.688;7.130;2023-10-13T20:52:15;17.10;99.90
15617;DHT22;7908;51.688;7.130;2023-10-13T20:54:48;17.10;99.90
15617;DHT22;7908;51.688;7.130;2023-10-13T20:57:19;17.10;99.90
15617;DHT22;7908;51.688;7.130;2023-10-13T20:59:51;17.10;99.90
15617;DHT22;7908;51.688;7.130;2023-10-13T21:02:20;17.00;99.90
15617;DHT22;7908;51.688;7.130;2023-10-13T21:04:53;17.00;99.90
15617;DHT22;7908;51.688;7.130;2023-10-13T21:07:25;17.00;99.90
15617;DHT22;7908;51.688;7.130;2023-10-13T21:09:54;17.10;99.90
15617;DHT22;7908;51.688;7.130;2023-10-13T21:12:24;17.00;99.90
15617;DHT22;7908;51.688;7.130;2023-10-13T21:14:55;17.10;99.90
15617;DHT22;7908;51.688;7.130;2023-10-13T21:17:32;17.00;99.90
15617;DHT22;7908;51.688;7.130;2023-10-13T21:20:06;17.00;99.90
15617;DHT22;7908;51.688;7.130;2023-10-13T21:22:37;17.00;99.90
15617;DHT22;7908;51.688;7.130;2023-10-13T21:25:08;17.00;99.90
15617;DHT22;7908;51.688;7.130;2023-10-13T21:27:48;17.00;99.90
15617;DHT22;7908;51.688;7.130;2023-10-13T21:30:25;17.00;99.90
15617;DHT22;7908;51.688;7.130;2023-10-13T21:32:55;17.00;99.90
15617;DHT22;7908;51.688;7.130;2023-10-13T21:35:28;17.00;99.90
15617;DHT22;7908;51.688;7.130;2023-10-13T21:38:00;17.00;99.90
15617;DHT22;7908;51.688;7.130;2023-10-13T21:40:29;17.00;99.90
15617;DHT22;7908;51.688;7.130;2023-10-13T21:42:59;17.00;99.90
15617;DHT22;7908;51.688;7.130;2023-10-13T21:45:35;17.00;99.90
15617;DHT22;7908;51.688;7.130;2023-10-13T21:48:06;16.90;99.90
15617;DHT22;7908;51.688;7.130;2023-10-13T21:50:39;16.90;99.90
15617;DHT22;7908;51.688;7.130;2023-10-13T21:53:10;16.90;99.90
15617;DHT22;7908;51.688;7.130;2023-10-13T21:55:40;16.90;99.90
15617;DHT22;7908;51.688;7.130;2023-10-13T21:58:10;16.90;99.90
15617;DHT22;7908;51.688;7.130;2023-10-13T22:00:42;16.90;99.90
15617;DHT22;7908;51.688;7.130;2023-10-13T22:03:24;16.80;99.90
15617;DHT22;7908;51.688;7.130;2023-10-13T22:05:57;16.80;99.90
15617;DHT22;7908;51.688;7.130;2023-10-13T22:08:28;16.80;99.90
15617;DHT22;7908;51.688;7.130;2023-10-13T22:10:57;16.80;99.90
15617;DHT22;7908;51.688;7.130;2023-10-13T22:13:30;16.80;99.90
15617;DHT22;7908;51.688;7.130;2023-10-13T22:16:06;16.80;99.90
15617;DHT22;7908;51.688;7.130;2023-10-13T22:18:39;16.80;99.90
15617;DHT22;7908;51.688;7.130;2023-10-13T22:21:13;16.80;99.90
15617;DHT22;7908;51.688;7.130;2023-10-13T22:23:47;16.90;99.90
15617;DHT22;7908;51.688;7.130;2023-10-13T22:26:16;16.90;99.90
15617;DHT22;7908;51.688;7.130;2023-10-13T22:28:48;16.90;99.90
15617;DHT22;7908;51.688;7.130;2023-10-13T22:31:19;16.90;99.90
15617;DHT22;7908;51.688;7.130;2023-10-13T22:33:51;16.90;99.90
15617;DHT22;7908;51.688;7.130;2023-10-13T22:36:21;17.00;99.90
15617;DHT22;7908;51.688;7.130;2023-10-13T22:38:53;17.00;99.90
15617;DHT22;7908;51.688;7.130;2023-10-13T22:41:27;17.00;99.90
15617;DHT22;7908;51.688;7.130;2023-10-13T22:43:59;17.00;99.90
15617;DHT22;7908;51.688;7.130;2023-10-13T22:46:34;17.00;99.90
15617;DHT22;7908;51.688;7.130;2023-10-13T22:49:03;17.00;99.90
15617;DHT22;7908;51.688;7.130;2023-10-13T22:51:32;17.00;99.90
15617;DHT22;7908;51.688;7.130;2023-10-13T22:54:02;17.00;99.90
15617;DHT22;7908;51.688;7.130;2023-10-13T22:56:32;17.00;99.90
15617;DHT22;7908;51.688;7.130;2023-10-13T22:59:01;17.00;99.90
15617;DHT22;7908;51.688;7.130;2023-10-13T23:01:34;17.10;99.90
15617;DHT22;7908;51.688;7.130;2023-10-13T23:04:10;17.10;99.90
15617;DHT22;7908;51.688;7.130;2023-10-13T23:06:43;17.10;99.90
15617;DHT22;7908;51.688;7.130;2023-10-13T23:09:17;17.20;99.90
15617;DHT22;7908;51.688;7.130;2023-10-13T23:11:54;17.20;99.90
15617;DHT22;7908;51.688;7.130;2023-10-13T23:14:31;17.20;99.90
15617;DHT22;7908;51.688;7.130;2023-10-13T23:17:03;17.30;99.90
15617;DHT22;7908;51.688;7.130;2023-10-13T23:19:33;17.30;99.90
15617;DHT22;7908;51.688;7.130;2023-10-13T23:22:03;17.40;99.90
15617;DHT22;7908;51.688;7.130;2023-10-13T23:24:34;17.40;99.90
15617;DHT22;7908;51.688;7.130;2023-10-13T23:27:04;17.40;99.90
15617;DHT22;7908;51.688;7.130;2023-10-13T23:29:33;17.40;99.90
15617;DHT22;7908;51.688;7.130;2023-10-13T23:32:05;17.40;99.90
15617;DHT22;7908;51.688;7.130;2023-10-13T23:34:35;17.40;99.90
15617;DHT22;7908;51.688;7.130;2023-10-13T23:37:04;17.50;99.90
15617;DHT22;7908;51.688;7.130;2023-10-13T23:39:38;17.50;99.90
15617;DHT22;7908;51.688;7.130;2023-10-13T23:42:07;17.50;99.90
15617;DHT22;7908;51.688;7.130;2023-10-13T23:44:46;17.50;99.90
15617;DHT22;7908;51.688;7.130;2023-10-13T23:47:16;17.50;99.90
15617;DHT22;7908;51.688;7.130;2023-10-13T23:49:55;17.50;99.90
15617;DHT22;7908;51.688;7.130;2023-10-13T23:52:25;17.50;99.90
15617;DHT22;7908;51.688;7.130;2023-10-13T23:54:59;17.50;99.90
15617;DHT22;7908;51.688;7.130;2023-10-13T23:57:33;17.50;99.90
